createdAt,value
2022-11-29T00:01:38.354Z,101113.94
2022-11-29T00:04:05.485Z,101110.75
2022-11-29T00:06:34.674Z,101118.56
2022-11-29T00:09:06.267Z,101112.22
2022-11-29T00:11:56.397Z,101114.28
2022-11-29T00:14:24.320Z,101108.06
2022-11-29T00:17:03.518Z,101106.38
2022-11-29T00:19:35.016Z,101106.94
2022-11-29T00:22:03.099Z,101114.06
2022-11-29T00:24:32.344Z,101109.34
2022-11-29T00:26:59.792Z,101112.16
2022-11-29T00:29:27.353Z,101109.91
2022-11-29T00:31:54.028Z,101112.22
2022-11-29T00:34:20.690Z,101107.59
2022-11-29T00:36:47.334Z,101112.50
2022-11-29T00:39:14.269Z,101108.13
2022-11-29T00:41:40.930Z,101107.22
2022-11-29T00:44:08.156Z,101107.88
2022-11-29T00:46:34.869Z,101101.94
2022-11-29T00:49:01.623Z,101112.56
2022-11-29T00:51:28.426Z,101107.56
2022-11-29T00:53:55.067Z,101116.66
2022-11-29T00:56:21.733Z,101108.38
2022-11-29T00:58:49.305Z,101105.84
2022-11-29T01:01:16.311Z,101109.34
2022-11-29T01:03:43.176Z,101105.34
2022-11-29T01:06:13.610Z,101102.75
2022-11-29T01:08:40.454Z,101112.84
2022-11-29T01:11:19.557Z,101101.50
2022-11-29T01:13:46.742Z,101107.31
2022-11-29T01:16:15.365Z,101110.19
2022-11-29T01:18:42.629Z,101109.09
2022-11-29T01:21:15.157Z,101113.25
2022-11-29T01:23:42.900Z,101110.97
2022-11-29T01:26:19.176Z,101111.69
2022-11-29T01:28:47.601Z,101106.41
2022-11-29T01:31:20.114Z,101109.25
2022-11-29T01:33:46.826Z,101118.50
2022-11-29T01:36:14.679Z,101115.88
2022-11-29T01:38:42.507Z,101128.84
2022-11-29T01:41:12.645Z,101113.38
2022-11-29T01:43:58.625Z,101112.69
2022-11-29T01:46:27.237Z,101117.81
2022-11-29T01:49:00.417Z,101123.53
2022-11-29T01:51:28.539Z,101119.25
2022-11-29T01:53:55.567Z,101126.22
2022-11-29T01:56:23.153Z,101114.66
2022-11-29T01:58:50.004Z,101116.25
2022-11-29T02:01:16.853Z,101126.09
2022-11-29T02:03:43.654Z,101125.06
2022-11-29T02:06:10.540Z,101130.06
2022-11-29T02:08:40.267Z,101127.75
2022-11-29T02:11:09.861Z,101124.97
2022-11-29T02:13:51.352Z,101127.81
2022-11-29T02:16:17.998Z,101127.50
2022-11-29T02:19:18.080Z,101126.56
2022-11-29T02:21:53.139Z,101131.44
2022-11-29T02:24:52.039Z,101131.50
2022-11-29T02:27:27.614Z,101140.75
2022-11-29T02:30:16.136Z,101138.75
2022-11-29T02:33:01.190Z,101137.75
2022-11-29T02:35:43.131Z,101144.03
2022-11-29T02:38:57.965Z,101145.75
2022-11-29T02:41:42.508Z,101148.59
2022-11-29T02:44:27.758Z,101137.63
2022-11-29T02:46:54.326Z,101137.56
2022-11-29T02:49:45.839Z,101144.31
2022-11-29T02:52:25.058Z,101145.16
2022-11-29T02:55:16.050Z,101138.66
2022-11-29T02:58:26.536Z,101144.47
2022-11-29T03:01:07.512Z,101144.03
2022-11-29T03:03:44.570Z,101152.00
2022-11-29T03:06:31.035Z,101148.66
2022-11-29T03:09:29.913Z,101149.41
2022-11-29T03:12:02.626Z,101145.19
2022-11-29T03:15:07.070Z,101157.34
2022-11-29T03:17:57.658Z,101157.59
2022-11-29T03:20:36.349Z,101161.00
2022-11-29T03:23:02.954Z,101169.81
2022-11-29T03:25:36.797Z,101166.28
2022-11-29T03:28:21.628Z,101165.13
2022-11-29T03:31:11.568Z,101167.03
2022-11-29T03:33:53.395Z,101175.88
2022-11-29T03:36:46.087Z,101167.66
2022-11-29T03:39:36.495Z,101168.44
2022-11-29T03:42:10.902Z,101170.38
2022-11-29T03:44:51.071Z,101173.97
2022-11-29T03:47:26.515Z,101175.81
2022-11-29T03:50:14.793Z,101173.75
2022-11-29T03:52:53.449Z,101172.56
2022-11-29T03:55:38.872Z,101180.72
2022-11-29T03:58:11.432Z,101179.88
2022-11-29T04:00:50.123Z,101179.19
2022-11-29T04:03:58.766Z,101183.19
2022-11-29T04:07:02.474Z,101183.81
2022-11-29T04:09:57.145Z,101188.88
2022-11-29T04:12:23.852Z,101195.34
2022-11-29T04:15:10.432Z,101194.72
2022-11-29T04:18:08.878Z,101191.50
2022-11-29T04:21:00.568Z,101189.78
2022-11-29T04:23:55.926Z,101201.34
2022-11-29T04:26:22.556Z,101194.44
2022-11-29T04:29:01.191Z,101200.94
2022-11-29T04:31:59.846Z,101206.09
2022-11-29T04:34:53.932Z,101214.28
2022-11-29T04:37:44.904Z,101214.53
2022-11-29T04:40:25.540Z,101216.69
2022-11-29T04:43:16.541Z,101218.84
2022-11-29T04:45:43.373Z,101228.50
2022-11-29T04:48:38.004Z,101219.22
2022-11-29T04:51:26.778Z,101223.69
2022-11-29T04:54:21.034Z,101231.22
2022-11-29T04:56:50.797Z,101235.03
2022-11-29T04:59:35.629Z,101235.19
2022-11-29T05:02:24.112Z,101244.91
2022-11-29T05:05:00.879Z,101227.59
2022-11-29T05:07:45.742Z,101240.97
2022-11-29T05:10:53.330Z,101249.75
2022-11-29T05:13:54.673Z,101256.59
2022-11-29T05:16:52.098Z,101255.75
2022-11-29T05:19:18.629Z,101254.03
2022-11-29T05:22:20.575Z,101261.81
2022-11-29T05:25:14.811Z,101258.78
2022-11-29T05:27:51.440Z,101256.78
2022-11-29T05:30:19.475Z,101264.38
2022-11-29T05:32:51.986Z,101256.06
2022-11-29T05:35:46.608Z,101260.06
2022-11-29T05:38:57.879Z,101265.13
2022-11-29T05:41:33.521Z,101268.53
2022-11-29T05:44:00.181Z,101277.84
2022-11-29T05:46:39.816Z,101272.19
2022-11-29T05:49:34.525Z,101278.78
2022-11-29T05:52:28.217Z,101277.38
2022-11-29T05:55:20.488Z,101285.75
2022-11-29T05:57:57.057Z,101287.03
2022-11-29T06:00:27.885Z,101284.16
2022-11-29T06:03:30.006Z,101286.69
2022-11-29T06:06:14.450Z,101290.84
2022-11-29T06:09:24.953Z,101293.72
2022-11-29T06:12:02.526Z,101292.94
2022-11-29T06:14:29.123Z,101309.66
2022-11-29T06:17:14.073Z,101303.41
2022-11-29T06:19:59.303Z,101305.34
2022-11-29T06:22:41.104Z,101304.44
2022-11-29T06:25:28.152Z,101306.28
2022-11-29T06:28:13.157Z,101304.88
2022-11-29T06:30:53.856Z,101305.06
2022-11-29T06:33:54.641Z,101316.09
2022-11-29T06:36:25.509Z,101314.44
2022-11-29T06:38:52.355Z,101327.50
2022-11-29T06:41:22.270Z,101339.59
2022-11-29T06:43:49.803Z,101332.44
2022-11-29T06:46:25.842Z,101342.06
2022-11-29T06:49:17.181Z,101341.56
2022-11-29T06:52:01.981Z,101339.34
2022-11-29T06:54:47.169Z,101343.59
2022-11-29T06:57:29.046Z,101344.00
2022-11-29T07:00:11.727Z,101348.16
2022-11-29T07:02:44.381Z,101354.19
2022-11-29T07:05:30.839Z,101350.19
2022-11-29T07:08:05.498Z,101363.38
2022-11-29T07:10:35.733Z,101353.75
2022-11-29T07:13:02.878Z,101359.44
2022-11-29T07:15:29.996Z,101362.22
2022-11-29T07:17:59.734Z,101366.50
2022-11-29T07:20:38.697Z,101368.31
2022-11-29T07:23:33.265Z,101363.19
2022-11-29T07:26:18.549Z,101373.75
2022-11-29T07:28:59.488Z,101379.13
2022-11-29T07:31:32.464Z,101379.56
2022-11-29T07:34:34.077Z,101381.91
2022-11-29T07:37:18.970Z,101384.78
2022-11-29T07:40:03.974Z,101381.91
2022-11-29T07:42:58.562Z,101385.41
2022-11-29T07:45:31.994Z,101387.31
2022-11-29T07:47:59.598Z,101386.41
2022-11-29T07:50:27.413Z,101382.91
2022-11-29T07:52:55.416Z,101388.94
2022-11-29T07:55:25.414Z,101390.78
2022-11-29T07:57:52.896Z,101392.25
2022-11-29T08:00:20.732Z,101397.13
2022-11-29T08:02:49.315Z,101398.31
2022-11-29T08:05:16.295Z,101392.66
2022-11-29T08:07:43.079Z,101396.72
2022-11-29T08:10:13.501Z,101403.47
2022-11-29T08:12:46.277Z,101405.41
2022-11-29T08:15:13.691Z,101406.00
2022-11-29T08:17:40.724Z,101407.78
2022-11-29T08:20:08.925Z,101408.69
2022-11-29T08:22:35.843Z,101413.19
2022-11-29T08:25:04.117Z,101411.81
2022-11-29T08:27:31.615Z,101405.03
2022-11-29T08:29:58.308Z,101407.53
2022-11-29T08:32:26.216Z,101407.44
2022-11-29T08:34:52.884Z,101402.47
2022-11-29T08:37:19.681Z,101405.47
2022-11-29T08:39:46.400Z,101408.31
2022-11-29T08:42:13.093Z,101415.22
2022-11-29T08:44:39.926Z,101409.81
2022-11-29T08:47:25.049Z,101415.59
2022-11-29T08:50:03.854Z,101419.06
2022-11-29T08:52:51.973Z,101419.06
2022-11-29T08:55:20.341Z,101422.53
2022-11-29T08:57:48.398Z,101426.47
2022-11-29T09:00:16.169Z,101424.22
2022-11-29T09:02:43.283Z,101427.50
2022-11-29T09:05:11.250Z,101423.88
2022-11-29T09:07:38.180Z,101426.75
2022-11-29T09:10:09.258Z,101434.41
2022-11-29T09:12:36.692Z,101432.41
2022-11-29T09:15:08.750Z,101437.81
2022-11-29T09:17:35.572Z,101436.13
2022-11-29T09:20:02.361Z,101440.22
2022-11-29T09:22:29.002Z,101437.53
2022-11-29T09:24:55.794Z,101443.09
2022-11-29T09:27:22.474Z,101448.88
2022-11-29T09:29:49.115Z,101451.19
2022-11-29T09:32:15.786Z,101457.03
2022-11-29T09:34:42.575Z,101454.91
2022-11-29T09:37:09.441Z,101460.19
2022-11-29T09:39:36.177Z,101462.09
2022-11-29T09:42:23.964Z,101466.28
2022-11-29T09:45:24.330Z,101471.75
2022-11-29T09:47:57.905Z,101464.31
2022-11-29T09:50:33.861Z,101467.75
2022-11-29T09:53:22.392Z,101463.53
2022-11-29T09:56:21.069Z,101468.09
2022-11-29T09:59:05.627Z,101460.50
2022-11-29T10:01:41.309Z,101466.03
2022-11-29T10:04:18.596Z,101469.44
2022-11-29T10:07:12.423Z,101472.94
2022-11-29T10:09:44.930Z,101480.41
2022-11-29T10:12:30.538Z,101470.19
2022-11-29T10:15:19.001Z,101466.88
2022-11-29T10:18:21.031Z,101467.69
2022-11-29T10:20:53.890Z,101479.19
2022-11-29T10:23:27.263Z,101472.63
2022-11-29T10:25:55.836Z,101471.47
2022-11-29T10:28:30.589Z,101477.84
2022-11-29T10:31:03.237Z,101473.63
2022-11-29T10:33:35.241Z,101472.31
2022-11-29T10:36:22.207Z,101482.16
2022-11-29T10:38:50.382Z,101476.47
2022-11-29T10:41:22.361Z,101485.03
2022-11-29T10:43:50.907Z,101486.06
2022-11-29T10:46:24.282Z,101487.06
2022-11-29T10:48:52.803Z,101486.44
2022-11-29T10:51:19.700Z,101483.84
2022-11-29T10:53:49.241Z,101489.84
2022-11-29T10:56:29.469Z,101472.13
2022-11-29T10:59:03.003Z,101480.31
2022-11-29T11:01:33.704Z,101478.69
2022-11-29T11:04:04.217Z,101484.44
2022-11-29T11:06:56.357Z,101469.41
2022-11-29T11:09:33.616Z,101469.56
2022-11-29T11:12:08.532Z,101466.63
2022-11-29T11:14:38.844Z,101473.28
2022-11-29T11:17:32.952Z,101475.94
2022-11-29T11:20:08.786Z,101470.75
2022-11-29T11:22:39.786Z,101476.69
2022-11-29T11:25:25.339Z,101473.00
2022-11-29T11:27:52.275Z,101476.75
2022-11-29T11:30:25.230Z,101477.31
2022-11-29T11:33:13.544Z,101476.94
2022-11-29T11:35:40.866Z,101475.94
2022-11-29T11:38:16.470Z,101485.72
2022-11-29T11:40:43.819Z,101484.56
2022-11-29T11:43:21.496Z,101484.00
2022-11-29T11:45:53.591Z,101480.72
2022-11-29T11:48:21.276Z,101484.88
2022-11-29T11:50:54.466Z,101484.81
2022-11-29T11:53:23.744Z,101499.50
2022-11-29T11:56:03.039Z,101481.53
2022-11-29T11:58:53.215Z,101488.72
2022-11-29T12:01:28.646Z,101488.53
2022-11-29T12:04:06.477Z,101497.59
2022-11-29T12:06:45.309Z,101497.53
2022-11-29T12:09:36.834Z,101493.47
2022-11-29T12:12:12.030Z,101495.19
2022-11-29T12:15:16.408Z,101493.41
2022-11-29T12:18:03.513Z,101496.94
2022-11-29T12:20:46.684Z,101502.75
2022-11-29T12:23:22.053Z,101506.09
2022-11-29T12:26:48.559Z,101504.47
2022-11-29T12:29:13.663Z,101509.03
2022-11-29T12:32:04.378Z,101507.91
2022-11-29T12:34:31.063Z,101511.94
2022-11-29T12:37:09.412Z,101515.72
2022-11-29T12:40:08.466Z,101524.66
2022-11-29T12:42:52.809Z,101525.13
2022-11-29T12:45:53.795Z,101525.22
2022-11-29T12:48:41.869Z,101520.47
2022-11-29T12:51:27.249Z,101523.63
2022-11-29T12:53:56.703Z,101526.38
2022-11-29T12:56:32.392Z,101519.19
2022-11-29T12:59:27.788Z,101527.34
2022-11-29T13:02:18.488Z,101525.28
2022-11-29T13:05:00.283Z,101532.19
2022-11-29T13:07:35.765Z,101534.06
2022-11-29T13:10:38.314Z,101535.22
2022-11-29T13:13:30.765Z,101530.97
2022-11-29T13:16:31.651Z,101529.44
2022-11-29T13:19:00.567Z,101538.47
2022-11-29T13:21:29.979Z,101531.31
2022-11-29T13:24:08.483Z,101536.06
2022-11-29T13:26:37.966Z,101536.16
2022-11-29T13:29:06.213Z,101538.72
2022-11-29T13:31:33.784Z,101547.38
2022-11-29T13:34:13.324Z,101545.72
2022-11-29T13:36:45.879Z,101541.53
2022-11-29T13:39:49.714Z,101547.63
2022-11-29T13:42:19.166Z,101551.50
2022-11-29T13:45:10.681Z,101555.63
2022-11-29T13:48:00.901Z,101552.03
2022-11-29T13:50:41.248Z,101545.94
2022-11-29T13:53:16.636Z,101549.16
2022-11-29T13:55:46.584Z,101548.38
2022-11-29T13:58:17.878Z,101550.44
2022-11-29T14:00:44.819Z,101548.03
2022-11-29T14:03:23.796Z,101556.56
2022-11-29T14:05:52.157Z,101552.84
2022-11-29T14:08:25.627Z,101553.22
2022-11-29T14:10:58.149Z,101554.44
2022-11-29T14:13:36.695Z,101550.84
2022-11-29T14:16:05.443Z,101559.97
2022-11-29T14:18:49.067Z,101556.13
2022-11-29T14:21:15.895Z,101556.03
2022-11-29T14:23:44.350Z,101565.84
2022-11-29T14:26:10.954Z,101570.03
2022-11-29T14:28:39.789Z,101561.78
2022-11-29T14:31:08.363Z,101565.66
2022-11-29T14:33:35.082Z,101567.00
2022-11-29T14:36:04.873Z,101566.00
2022-11-29T14:38:53.831Z,101570.44
2022-11-29T14:41:39.114Z,101572.16
2022-11-29T14:44:26.089Z,101570.63
2022-11-29T14:47:05.018Z,101567.50
2022-11-29T14:49:40.387Z,101571.41
2022-11-29T14:52:32.382Z,101574.00
2022-11-29T14:55:14.277Z,101573.00
2022-11-29T14:57:50.115Z,101578.16
2022-11-29T15:00:28.349Z,101573.97
2022-11-29T15:03:00.767Z,101573.28
2022-11-29T15:05:34.952Z,101575.91
2022-11-29T15:08:16.151Z,101572.38
2022-11-29T15:11:18.229Z,101579.47
2022-11-29T15:14:07.420Z,101587.03
2022-11-29T15:16:57.413Z,101581.13
2022-11-29T15:19:45.851Z,101588.63
2022-11-29T15:22:22.478Z,101584.34
2022-11-29T15:24:51.798Z,101588.50
2022-11-29T15:27:18.894Z,101586.16
2022-11-29T15:29:48.294Z,101592.66
2022-11-29T15:32:26.534Z,101592.50
2022-11-29T15:34:56.968Z,101595.28
2022-11-29T15:37:36.526Z,101596.13
2022-11-29T15:40:24.751Z,101595.66
2022-11-29T15:43:00.066Z,101602.34
2022-11-29T15:45:35.140Z,101604.22
2022-11-29T15:48:19.740Z,101596.56
2022-11-29T15:50:59.758Z,101601.88
2022-11-29T15:53:34.021Z,101610.50
2022-11-29T15:56:03.339Z,101623.03
2022-11-29T15:58:33.481Z,101615.22
2022-11-29T16:01:01.405Z,101620.44
2022-11-29T16:03:34.686Z,101620.88
2022-11-29T16:06:41.503Z,101621.94
2022-11-29T16:09:13.659Z,101626.72
2022-11-29T16:11:40.687Z,101632.47
2022-11-29T16:14:28.139Z,101633.88
2022-11-29T16:16:58.100Z,101634.94
2022-11-29T16:19:35.041Z,101626.47
2022-11-29T16:22:10.829Z,101632.47
2022-11-29T16:24:39.471Z,101634.16
2022-11-29T16:27:08.022Z,101634.84
2022-11-29T16:29:38.247Z,101629.41
2022-11-29T16:32:34.743Z,101641.66
2022-11-29T16:35:16.730Z,101635.47
2022-11-29T16:37:45.783Z,101642.88
2022-11-29T16:40:30.667Z,101640.28
2022-11-29T16:43:03.277Z,101641.31
2022-11-29T16:45:38.501Z,101646.31
2022-11-29T16:48:28.629Z,101651.91
2022-11-29T16:51:10.533Z,101650.59
2022-11-29T16:53:41.493Z,101650.22
2022-11-29T16:56:11.425Z,101661.63
2022-11-29T16:59:17.309Z,101657.47
2022-11-29T17:01:28.388Z,101669.25
2022-11-29T17:03:59.335Z,101665.56
2022-11-29T17:06:28.479Z,101668.22
2022-11-29T17:08:56.889Z,101666.38
2022-11-29T17:11:24.504Z,101678.69
2022-11-29T17:13:51.608Z,101676.91
2022-11-29T17:16:23.858Z,101679.63
2022-11-29T17:18:52.755Z,101676.09
2022-11-29T17:21:27.838Z,101668.91
2022-11-29T17:23:54.565Z,101667.13
2022-11-29T17:26:22.106Z,101674.41
2022-11-29T17:28:50.383Z,101676.59
2022-11-29T17:31:24.703Z,101680.13
2022-11-29T17:33:51.400Z,101688.53
2022-11-29T17:36:20.264Z,101694.47
2022-11-29T17:38:47.751Z,101690.16
2022-11-29T17:41:17.532Z,101695.13
2022-11-29T17:43:44.538Z,101690.16
2022-11-29T17:46:13.062Z,101693.34
2022-11-29T17:48:40.297Z,101700.63
2022-11-29T17:51:28.891Z,101697.56
2022-11-29T17:53:54.998Z,101695.75
2022-11-29T17:56:25.357Z,101693.94
2022-11-29T17:58:57.397Z,101698.81
2022-11-29T18:01:26.697Z,101708.16
2022-11-29T18:03:56.007Z,101707.44
2022-11-29T18:06:31.317Z,101701.13
2022-11-29T18:08:59.833Z,101702.06
2022-11-29T18:11:44.996Z,101713.94
2022-11-29T18:14:15.196Z,101714.84
2022-11-29T18:16:42.190Z,101709.84
2022-11-29T18:19:11.917Z,101713.16
2022-11-29T18:21:38.613Z,101713.88
2022-11-29T18:24:06.841Z,101720.84
2022-11-29T18:26:36.257Z,101726.66
2022-11-29T18:29:03.568Z,101724.47
2022-11-29T18:31:32.840Z,101730.63
2022-11-29T18:34:01.943Z,101738.72
2022-11-29T18:36:34.406Z,101733.41
2022-11-29T18:39:06.504Z,101730.41
2022-11-29T18:41:34.214Z,101740.69
2022-11-29T18:44:08.833Z,101745.41
2022-11-29T18:46:37.607Z,101748.66
2022-11-29T18:51:59.573Z,101741.72
2022-11-29T18:54:26.265Z,101745.13
2022-11-29T18:56:52.891Z,101751.38
2022-11-29T18:59:19.862Z,101749.28
2022-11-29T19:01:47.640Z,101747.41
2022-11-29T19:04:17.755Z,101743.22
2022-11-29T19:06:44.814Z,101746.25
2022-11-29T19:09:16.899Z,101742.34
2022-11-29T19:11:43.735Z,101740.69
2022-11-29T19:14:12.558Z,101745.13
2022-11-29T19:16:45.073Z,101744.00
2022-11-29T19:19:12.307Z,101747.53
2022-11-29T19:21:39.993Z,101746.00
2022-11-29T19:24:13.467Z,101753.47
2022-11-29T19:26:40.717Z,101752.81
2022-11-29T19:29:07.423Z,101752.44
2022-11-29T19:31:34.075Z,101755.13
2022-11-29T19:34:00.886Z,101742.53
2022-11-29T19:36:30.211Z,101743.63
2022-11-29T19:38:59.589Z,101749.97
2022-11-29T19:41:31.669Z,101743.25
2022-11-29T19:44:01.060Z,101748.78
2022-11-29T19:46:30.264Z,101747.88
2022-11-29T19:48:58.058Z,101742.53
2022-11-29T19:51:26.413Z,101756.00
2022-11-29T19:53:55.002Z,101752.94
2022-11-29T19:56:22.616Z,101749.84
2022-11-29T19:58:50.139Z,101766.78
2022-11-29T20:01:18.239Z,101760.47
2022-11-29T20:03:45.248Z,101762.53
2022-11-29T20:06:16.167Z,101764.47
2022-11-29T20:08:43.000Z,101765.22
2022-11-29T20:11:16.868Z,101761.94
2022-11-29T20:13:45.187Z,101758.72
2022-11-29T20:16:14.947Z,101767.16
2022-11-29T20:18:50.171Z,101762.66
2022-11-29T20:21:21.911Z,101764.34
2022-11-29T20:23:48.982Z,101773.81
2022-11-29T20:26:18.397Z,101774.75
2022-11-29T20:28:45.656Z,101777.59
2022-11-29T20:31:15.732Z,101769.69
2022-11-29T20:33:45.076Z,101768.56
2022-11-29T20:36:29.006Z,101762.81
2022-11-29T20:38:55.794Z,101759.84
2022-11-29T20:41:28.625Z,101766.81
2022-11-29T20:43:58.781Z,101768.59
2022-11-29T20:46:25.985Z,101768.81
2022-11-29T20:48:54.006Z,101772.03
2022-11-29T20:51:30.461Z,101777.84
2022-11-29T20:53:58.917Z,101774.50
2022-11-29T20:56:27.536Z,101776.91
2022-11-29T20:58:54.668Z,101779.88
2022-11-29T21:01:22.699Z,101786.56
2022-11-29T21:03:49.371Z,101786.34
2022-11-29T21:06:16.057Z,101788.41
2022-11-29T21:08:42.901Z,101785.09
2022-11-29T21:11:10.350Z,101792.88
2022-11-29T21:13:37.505Z,101786.84
2022-11-29T21:16:05.009Z,101794.03
2022-11-29T21:18:32.321Z,101787.00
2022-11-29T21:21:11.136Z,101784.97
2022-11-29T21:23:43.916Z,101792.16
2022-11-29T21:26:20.316Z,101796.38
2022-11-29T21:28:55.923Z,101781.63
2022-11-29T21:31:22.852Z,101794.50
2022-11-29T21:33:49.819Z,101786.56
2022-11-29T21:36:18.061Z,101788.38
2022-11-29T21:38:50.982Z,101797.03
2022-11-29T21:41:21.725Z,101787.47
2022-11-29T21:44:06.161Z,101792.63
2022-11-29T21:46:35.245Z,101800.69
2022-11-29T21:49:02.118Z,101793.72
2022-11-29T21:51:28.881Z,101786.44
2022-11-29T21:53:55.643Z,101791.72
2022-11-29T21:56:22.465Z,101797.19
2022-11-29T21:58:49.161Z,101799.00
2022-11-29T22:01:18.576Z,101795.94
2022-11-29T22:03:46.232Z,101805.19
2022-11-29T22:06:16.575Z,101796.19
2022-11-29T22:08:43.303Z,101802.31
2022-11-29T22:11:12.315Z,101818.13
2022-11-29T22:13:59.754Z,101812.16
2022-11-29T22:16:26.482Z,101809.13
2022-11-29T22:18:53.687Z,101819.88
2022-11-29T22:21:20.789Z,101813.66
2022-11-29T22:23:47.535Z,101815.22
2022-11-29T22:26:14.242Z,101816.78
2022-11-29T22:28:41.008Z,101819.53
2022-11-29T22:31:11.622Z,101818.66
2022-11-29T22:33:38.737Z,101821.56
2022-11-29T22:36:08.887Z,101811.41
2022-11-29T22:38:36.107Z,101812.97
2022-11-29T22:41:05.828Z,101815.38
2022-11-29T22:43:32.868Z,101814.50
2022-11-29T22:46:13.898Z,101815.19
2022-11-29T22:48:42.325Z,101821.16
2022-11-29T22:51:10.276Z,101820.28
2022-11-29T22:53:38.969Z,101820.44
2022-11-29T22:56:08.345Z,101816.75
2022-11-29T22:58:35.314Z,101817.47
2022-11-29T23:01:10.981Z,101822.28
2022-11-29T23:03:39.710Z,101831.97
2022-11-29T23:06:17.800Z,101835.38
2022-11-29T23:08:46.403Z,101828.31
2022-11-29T23:11:16.212Z,101843.06
2022-11-29T23:13:43.703Z,101837.81
2022-11-29T23:16:17.009Z,101836.94
2022-11-29T23:18:45.996Z,101839.44
2022-11-29T23:21:18.276Z,101834.06
2022-11-29T23:23:45.345Z,101840.19
2022-11-29T23:26:26.829Z,101843.94
2022-11-29T23:28:54.588Z,101841.38
2022-11-29T23:31:22.953Z,101832.53
2022-11-29T23:33:50.424Z,101832.41
2022-11-29T23:36:17.693Z,101829.94
2022-11-29T23:38:44.375Z,101836.84
2022-11-29T23:41:11.702Z,101826.56
2022-11-29T23:43:40.610Z,101832.69
2022-11-29T23:46:08.777Z,101831.69
2022-11-29T23:48:35.483Z,101842.19
2022-11-29T23:51:02.293Z,101842.19
2022-11-29T23:53:28.992Z,101840.34
2022-11-29T23:56:04.309Z,101839.41
2022-11-29T23:58:31.680Z,101835.00
